Tiempo atmosférico en la estación meteorológica de Cabrales, Asturias (458 m.)

Fecha
DESCASC
Temp. máxima en grados centígrados (hora)
DESCASC
Temp. mínima en grados centígrados (hora)
DESCASC
Temp. media en grados centígrados
DESCASC
Racha de viento máxima en m/sg (hora)
DESCASC
Velocidad máxima media en intervalos de 10 minutos(hora)
DESCASC
Precipitaciones diarias en mm
DESCASC
Precipitaciones de 00:00 a 06:00 en mm
DESCASC
Precipitaciones de 06:00 a 12:00 en mm
DESCASC
Precipitaciones de 12:00 a 18:00 en mm
DESCASC
Precipitaciones de 18:00 a 24:00 en mm
DESCASC
21-08-2017 33.7 (17:20) 15.4 (03:40) 24.6 4.17 (03:20) 2.78 (16:00) 0 0 0 0 0
20-08-2017 26.1 (15:30) 12.6 (07:30) 19.4 8.33 (17:10) 5.83 (21:10) 0 0 0 0 0
19-08-2017 21.1 (13:50) 15.4 (07:30) 18.3 8.06 (15:40) 5 (15:40) 4.6 4.6 0 0 0
18-08-2017 23.8 (15:00) 16.6 (22:40) 20.2 8.89 (17:00) 6.67 (16:50) 0.8 0 0.2 0 0.6
17-08-2017 27.6 (18:00) 14.8 (00:00) 21.2 6.11 (20:10) 5 (21:20) 0 0 0 0 0
16-08-2017 25.3 (16:20) 14 (00:00) 19.6 7.22 (16:50) 5.28 (16:50) 0.2 0.2 0 0 0
15-08-2017 19.4 (15:50) 15.3 (00:00) 17.3 6.67 (08:10) 5 (08:10) 2.2 0.6 0.4 0.2 1
14-08-2017 29 (15:40) 14.8 (07:00) 21.9 14.44 (18:20) 7.78 (19:20) 2.6 0 0 0 2.6
13-08-2017 25.9 (16:30) 11.8 (00:00) 18.8 7.78 (17:20) 5.28 (17:30) 0 0 0 0 0
12-08-2017 24.8 (14:50) 11.1 (00:00) 17.9 6.11 (17:30) 4.17 (17:20) 0 0 0 0 0
11-08-2017 23 (18:20) 10.3 (00:00) 16.7 7.78 (15:20) 4.72 (15:20) 0 0 0 0 0
10-08-2017 20.5 (15:30) 11 (00:00) 15.8 10.28 (13:50) 6.11 (13:10) 0 0 0 0 0
09-08-2017 16 (11:50) 10.5 (00:00) 13.3 12.5 (16:00) 8.89 (16:00) 5 0.6 1.2 3 0.2
08-08-2017 19.9 (14:40) 11 (00:00) 15.4 10.83 (15:20) 7.5 (16:50) 1.2 1.2 0 0 0
07-08-2017 18.7 (12:30) 12.9 (00:00) 15.8 8.89 (22:20) 6.39 (22:20) 6.2 0 0 0 6.2
06-08-2017 18.6 (15:40) 13 (00:00) 15.8 10.56 (13:10) 6.67 (14:00) 0.8 0.6 0.2 0 0
05-08-2017 19.7 (00:00) 13.9 (00:00) 16.8 8.61 (05:20) 6.11 (11:50) 5.4 2.2 0.6 2.4 0.2
04-08-2017 28 (13:10) 15.6 (00:00) 21.8 7.78 (14:30) 5 (14:30) 0 0 0 0 0
03-08-2017 24.9 (13:20) 16.1 (00:00) 20.5 8.61 (11:40) 5 (14:50) 0 0 0 0 0
02-08-2017 25.6 (18:00) 13.7 (00:00) 19.7 8.33 (16:00) 5.56 (16:30) 0.2 0.2 0 0 0
01-08-2017 18.4 (18:40) 14.3 (00:00) 16.3 6.67 (16:20) 4.44 (16:20) 4.2 1.2 0.6 0.8 1.6
31-07-2017 18.6 (15:10) 13.3 (00:00) 16 4.72 (10:10) 3.33 (15:40) 2 0 0 0 2
30-07-2017 20.1 (00:00) 14.6 (00:00) 17.4 7.22 (11:00) 5.28 (11:10) 1 0 0 0.6 0.4
29-07-2017 30.1 (15:40) 15.8 (00:00) 23 8.33 (15:00) 4.72 (15:50) 0 0 0 0 0
28-07-2017 27.5 (18:30) 15.7 (00:00) 21.6 5.83 (00:20) 4.17 (00:30) 0.8 0.6 0 0.2 0
27-07-2017 26.7 (14:20) 13.7 (00:00) 20.2 8.33 (18:20) 6.11 (18:20) 1 0 0 0 1
26-07-2017 25.8 (17:00) 12.4 (00:00) 19.1 6.67 (14:30) 4.72 (19:00) 0 0 0 0 0
25-07-2017 20.9 (14:00) 13.5 (00:00) 17.2 8.06 (11:30) 5.56 (18:20) 0 0 0 0 0
24-07-2017 19.3 (13:50) 14.2 (00:00) 16.7 12.78 (13:00) 8.61 (13:00) 1.2 0.6 0.4 0 0.2
23-07-2017 24 (15:30) 12.6 (00:00) 18.3 9.44 (15:20) 5.83 (20:10) 0.6 0 0 0 0.6

Gráficas

Temp. máximas Temp. mínimas Temp. medias Precipitaciones Rachas de viento máximas Velocidades máximas media en intervalos de 10 minutos

Datos horarios

Fecha y hora oficial Temperatura (ºC) Velocidad del viento (km/h) Dirección del viento Racha (km/h) Dirección de racha Precipitación (mm) Presión (hPa) Tendencia (hPa) Humedad (%)
2017-08-21 23:00:00 23.7 5 Oeste 10 Este 0 -- -- 70
2017-08-21 22:00:00 24.6 8 Este 12 Sudeste 0 -- -- 68
2017-08-21 21:00:00 29.1 3 Sudeste 8 Sudeste 0 -- -- 53
2017-08-21 20:00:00 32.2 0 Calma 8 Oeste 0 -- -- 46
2017-08-21 19:00:00 33.7 5 Noroeste 12 Sudeste 0 -- -- 43
2017-08-21 18:00:00 33.4 8 Sur 12 Sudeste 0 -- -- 43
2017-08-21 17:00:00 33.5 7 Sudeste 15 Sudeste 0 -- -- 45
2017-08-21 16:00:00 33.2 10 Sudeste 15 Sudeste 0 -- -- 46
2017-08-21 15:00:00 32.5 4 Sudeste 9 Sudeste 0 -- -- 47
2017-08-21 14:00:00 30.6 2 Sudoeste 9 Sudeste 0 -- -- 51
2017-08-21 13:00:00 28.2 4 Este 8 Nordeste 0 -- -- 58
2017-08-21 12:00:00 25.3 3 Oeste 10 Este 0 -- -- 66
2017-08-21 11:00:00 22.4 2 Este 7 Sur 0 -- -- 78
2017-08-21 10:00:00 19 3 Sudeste 6 Sudeste 0 -- -- 87
2017-08-21 09:00:00 17 2 Nordeste 6 Este 0 -- -- 92
2017-08-21 08:00:00 16.3 3 Noroeste 10 Oeste 0 -- -- 88
2017-08-21 07:00:00 15.7 5 Oeste 8 Oeste 0 -- -- 92
2017-08-21 06:00:00 15.8 3 Oeste 6 Sudoeste 0 -- -- 95
2017-08-21 05:00:00 15.6 3 Sudoeste 6 Sudoeste 0 -- -- 98
2017-08-21 04:00:00 15.5 4 Oeste 15 Sudeste 0 -- -- 98
2017-08-21 03:00:00 15.9 3 Este 6 Este 0 -- -- 99
2017-08-21 02:00:00 16 0 Calma 6 Oeste 0 -- -- 99
2017-08-21 01:00:00 16.1 0 Calma 11 Sudeste 0 -- -- 98
2017-08-21 00:00:00 16.5 7 Sudeste 18 Sudeste 0 -- -- 96
2017-08-20 23:00:00 17 12 Sudeste 17 Sudeste 0 -- -- 94
2017-08-20 22:00:00 17.8 13 Sudeste 30 Sudeste 0 -- -- 90
2017-08-20 21:00:00 19.9 19 Sudeste 28 Sudeste 0 -- -- 82
2017-08-20 20:00:00 22 13 Sudeste 24 Este 0 -- -- 75
2017-08-20 19:00:00 24 13 Este 26 Sudeste 0 -- -- 68
2017-08-20 18:00:00 24.8 15 Este 30 Este 0 -- -- 65
2017-08-20 17:00:00 25.4 15 Este 30 Este 0 -- -- 62
2017-08-20 16:00:00 26.1 12 Este 27 Este 0 -- -- 63
2017-08-20 15:00:00 25.7 8 Sudeste 24 Este 0 -- -- 61
2017-08-20 14:00:00 24.7 5 Sudeste 14 Este 0 -- -- 65
2017-08-20 13:00:00 22.9 7 Sudeste 20 Sudeste 0 -- -- 69
2017-08-20 12:00:00 20.6 13 Sudeste 22 Sudeste 0 -- -- 74
2017-08-20 11:00:00 18 5 Este 11 Sur 0 -- -- 90
2017-08-20 10:00:00 15.3 5 Este 13 Sudeste 0 -- -- 100
2017-08-20 09:00:00 13.4 3 Este 13 Este 0 -- -- 100
2017-08-20 08:00:00 12.6 10 Sudeste 13 Sudeste 0 -- -- 100
2017-08-20 07:00:00 13.1 7 Sudeste 15 Sudeste 0 -- -- 100
2017-08-20 06:00:00 13.5 5 Este 6 Sudeste 0 -- -- 100
2017-08-20 05:00:00 13.8 0 Calma 10 Sudeste 0 -- -- 100
2017-08-20 04:00:00 14.2 10 Sudeste 13 Sudeste 0 -- -- 100
2017-08-20 03:00:00 14.8 9 Sudeste 13 Sudeste 0 -- -- 99
2017-08-20 02:00:00 15.3 8 Sudeste 15 Sudeste 0 -- -- 98
2017-08-20 01:00:00 15.5 7 Sudeste 16 Este 0 -- -- 97
2017-08-20 00:00:00 15.6 5 Sudeste 18 Este 0 -- -- 97
2017-08-19 23:00:00 15.6 6 Sudeste 17 Sudeste 0 -- -- 97
2017-08-19 22:00:00 15.8 8 Este 17 Sudeste 0 -- -- 95
2017-08-19 21:00:00 16.1 10 Este 24 Este 0 -- -- 94
2017-08-19 20:00:00 16.5 10 Este 27 Este 0 -- -- 93
2017-08-19 19:00:00 16.7 13 Sudeste 29 Sudeste 0 -- -- 92
2017-08-19 18:00:00 17.7 14 Este 26 Este 0 -- -- 90
2017-08-19 17:00:00 19.4 14 Este 27 Este 0 -- -- 85
2017-08-19 16:00:00 19.7 12 Este 29 Sudeste 0 -- -- 83
2017-08-19 15:00:00 20.6 14 Este 24 Este 0 -- -- 82
2017-08-19 14:00:00 20.8 7 Este 26 Sudeste 0 -- -- 83
2017-08-19 13:00:00 20.3 5 Sudeste 17 Este 0 -- -- 87
2017-08-19 12:00:00 18.5 6 Sudeste 25 Este 0 -- -- 94
2017-08-19 11:00:00 17.1 12 Sudeste 21 Sudeste 0 -- -- 100
2017-08-19 10:00:00 16.1 8 Sudeste 20 Sudeste 0 -- -- 100
2017-08-19 09:00:00 15.7 13 Este 23 Sudeste 0 -- -- 100
2017-08-19 08:00:00 15.4 6 Sudeste 15 Sudeste 0 -- -- 100
2017-08-19 07:00:00 15.5 11 Sudeste 22 Sudeste 0 -- -- 100
2017-08-19 06:00:00 15.6 6 Este 19 Este 0 -- -- 100
2017-08-19 05:00:00 15.7 10 Sudeste 18 Este 0.2 -- -- 100
2017-08-19 04:00:00 16 12 Sudeste 19 Sudeste 0.8 -- -- 100
2017-08-19 03:00:00 16.3 0 Calma 5 Sudoeste 3.4 -- -- 100
2017-08-19 02:00:00 16.4 3 Sudoeste 10 Oeste 0.2 -- -- 100
2017-08-19 01:00:00 16.6 5 Oeste 8 Oeste 0 -- -- 100
2017-08-19 00:00:00 16.6 3 Sudeste 6 Este 0 -- -- 100
2017-08-18 23:00:00 16.6 2 Oeste 12 Sudoeste 0 -- -- 100
2017-08-18 22:00:00 16.8 6 Noroeste 18 Oeste 0 -- -- 100
2017-08-18 21:00:00 16.8 12 Oeste 25 Sudoeste 0.4 -- -- 99
2017-08-18 20:00:00 18.1 18 Oeste 25 Sudoeste 0.2 -- -- 92
2017-08-18 19:00:00 20.4 4 Sudoeste 24 Oeste 0 -- -- 83
2017-08-18 18:00:00 23.2 19 Sudoeste 28 Oeste 0 -- -- 74
2017-08-18 17:00:00 20.3 23 Oeste 32 Oeste 0 -- -- 84
2017-08-18 16:00:00 22.4 12 Noroeste 22 Noroeste 0 -- -- 78
2017-08-18 15:00:00 23.8 8 Norte 18 Norte 0 -- -- 69
2017-08-18 14:00:00 22.5 9 Norte 19 Noroeste 0 -- -- 75
2017-08-18 13:00:00 20.4 7 Noroeste 14 Norte 0 -- -- 81
2017-08-18 12:00:00 19.1 7 Noroeste 12 Oeste 0 -- -- 90
2017-08-18 11:00:00 17.7 12 Noroeste 24 Oeste 0 -- -- 100
2017-08-18 10:00:00 17 20 Oeste 28 Oeste 0 -- -- 100
2017-08-18 09:00:00 17.6 16 Noroeste 27 Oeste 0 -- -- 100
2017-08-18 08:00:00 16.8 12 Oeste 20 Oeste 0 -- -- 100
2017-08-18 07:00:00 16.7 9 Oeste 12 Oeste 0.2 -- -- 100
2017-08-18 06:00:00 17.2 3 Sudeste 10 Oeste 0 -- -- 100
2017-08-18 05:00:00 17.4 7 Sudoeste 12 Sudeste 0 -- -- 100
2017-08-18 04:00:00 17.5 6 Este 9 Este 0 -- -- 100
2017-08-18 03:00:00 17.4 8 Sudeste 10 Oeste 0 -- -- 100
2017-08-18 02:00:00 17.7 9 Noroeste 14 Oeste 0 -- -- 100
2017-08-18 01:00:00 17.6 11 Oeste 17 Noroeste 0 -- -- 100
2017-08-18 00:00:00 17.9 13 Noroeste 19 Noroeste 0 -- -- 100
2017-08-17 23:00:00 18.5 8 Oeste 12 Sudoeste 0 -- -- 97
2017-08-17 22:00:00 18.6 10 Oeste 22 Oeste 0 -- -- 95
2017-08-17 21:00:00 21.2 18 Sudoeste 22 Sudoeste 0 -- -- 83
2017-08-17 20:00:00 25.5 4 Sur 16 Sudeste 0 -- -- 73
2017-08-17 19:00:00 26.6 8 Sudeste 16 Sudeste 0 -- -- 69
2017-08-17 18:00:00 27.6 6 Sur 11 Noroeste 0 -- -- 67
2017-08-17 17:00:00 26.2 8 Oeste 15 Oeste 0 -- -- 69
2017-08-17 16:00:00 26.6 12 Oeste 20 Oeste 0 -- -- 68
2017-08-17 15:00:00 26.6 6 Sudeste 18 Este 0 -- -- 66
2017-08-17 14:00:00 25.1 3 Norte 18 Noroeste 0 -- -- 72
2017-08-17 13:00:00 23.7 6 Oeste 17 Oeste 0 -- -- 69
2017-08-17 12:00:00 22.1 6 Oeste 15 Este 0 -- -- 75
2017-08-17 11:00:00 20.4 7 Sudeste 13 Sudeste 0 -- -- 84
2017-08-17 10:00:00 17.6 2 Este 8 Sudoeste 0 -- -- 100
2017-08-17 09:00:00 15.8 2 Norte 17 Oeste 0 -- -- 100
2017-08-17 08:00:00 15.1 6 Noroeste 9 Oeste 0 -- -- 100
2017-08-17 07:00:00 15.1 6 Oeste 7 Oeste 0 -- -- 100
2017-08-17 06:00:00 15.4 0 Calma 5 Oeste 0 -- -- 100
2017-08-17 05:00:00 15.4 0 Calma 8 Oeste 0 -- -- 100
2017-08-17 04:00:00 15.4 6 Sudoeste 8 Sudoeste 0 -- -- 100
2017-08-17 03:00:00 15.8 0 Calma 5 Sudoeste 0 -- -- 100
2017-08-17 02:00:00 15.8 3 Sur 7 Sudeste 0 -- -- 99
2017-08-17 01:00:00 16.1 3 Sur 13 Sudeste 0 -- -- 98
2017-08-17 00:00:00 16.7 9 Sudeste 12 Sudeste 0 -- -- 96
2017-08-16 23:00:00 17.3 6 Oeste 10 Sudeste 0 -- -- 95
2017-08-16 22:00:00 18.1 0 Calma 21 Sudoeste 0 -- -- 92
2017-08-16 21:00:00 19.8 13 Sudoeste 16 Sudoeste 0 -- -- 88
2017-08-16 20:00:00 21.9 8 Sur 15 Sudeste 0 -- -- 79
2017-08-16 19:00:00 22.4 9 Sudeste 17 Sudoeste 0 -- -- 77
2017-08-16 18:00:00 23 11 Oeste 25 Oeste 0 -- -- 75
2017-08-16 17:00:00 23.6 18 Oeste 26 Oeste 0 -- -- 74
2017-08-16 16:00:00 25.1 12 Noroeste 18 Norte 0 -- -- 68
2017-08-16 15:00:00 23.8 6 Noroeste 18 Noroeste 0 -- -- 69
2017-08-16 14:00:00 22.7 4 Sudeste 12 Nordeste 0 -- -- 70
2017-08-16 13:00:00 21.8 6 Este 12 Este 0 -- -- 80
2017-08-16 12:00:00 19.9 0 Calma 8 Oeste 0 -- -- 89
2017-08-16 11:00:00 17.8 4 Norte 8 Sudoeste 0 -- -- 100
2017-08-16 10:00:00 16.8 2 Oeste 5 Noroeste 0 -- -- 100
2017-08-16 09:00:00 14.8 3 Sudoeste 6 Sur 0 -- -- 100
2017-08-16 08:00:00 14.8 7 Sudeste 10 Sudeste 0 -- -- 100
2017-08-16 07:00:00 14.8 4 Oeste 7 Oeste 0 -- -- 100
2017-08-16 06:00:00 14.8 3 Noroeste 12 Oeste 0 -- -- 100
2017-08-16 05:00:00 14.8 5 Sur 9 Oeste 0 -- -- 100
2017-08-16 04:00:00 14.9 6 Oeste 11 Oeste 0.2 -- -- 100
2017-08-16 03:00:00 15.2 0 Calma 6 Oeste 0 -- -- 100
2017-08-16 02:00:00 15.3 4 Sudoeste 8 Sudeste 0 -- -- 100
2017-08-16 01:00:00 15.6 5 Sudeste 8 Sudeste 0 -- -- 100
2017-08-16 00:00:00 15.7 4 Sudoeste 12 Sudeste 0 -- -- 100
2017-08-15 23:00:00 15.8 12 Sudeste 18 Este 0 -- -- 100
2017-08-15 22:00:00 16.4 8 Sudeste 13 Este 0.2 -- -- 100
2017-08-15 21:00:00 16.8 3 Sudeste 8 Sudeste 0.2 -- -- 100
2017-08-15 20:00:00 17 6 Sudeste 8 Sudeste 0.6 -- -- 99
2017-08-15 19:00:00 17.6 5 Sudeste 10 Sudeste 0 -- -- 98
2017-08-15 18:00:00 18.6 5 Sudoeste 12 Oeste 0 -- -- 93
2017-08-15 17:00:00 19.1 6 Norte 13 Oeste 0 -- -- 92
2017-08-15 16:00:00 19.4 4 Sudeste 9 Sudeste 0 -- -- 91
2017-08-15 15:00:00 18.6 3 Sur 8 Sudeste 0 -- -- 94
2017-08-15 14:00:00 18.6 2 Este 7 Oeste 0 -- -- 99
2017-08-15 13:00:00 17.4 5 Oeste 10 Sudoeste 0.2 -- -- 100
2017-08-15 12:00:00 17.1 0 Calma 9 Noroeste 0 -- -- 100
2017-08-15 11:00:00 16.7 2 Sudeste 6 Sudeste 0 -- -- 100
2017-08-15 10:00:00 16 3 Oeste 11 Oeste 0 -- -- 100
2017-08-15 09:00:00 15.4 10 Oeste 24 Sudoeste 0.4 -- -- 100
2017-08-15 08:00:00 15.8 16 Oeste 23 Oeste 0 -- -- 100
2017-08-15 07:00:00 16.3 5 Oeste 12 Oeste 0 -- -- 100
2017-08-15 06:00:00 16.4 9 Oeste 13 Oeste 0.2 -- -- 100
2017-08-15 05:00:00 16.4 6 Oeste 13 Oeste 0 -- -- 100
2017-08-15 04:00:00 16.5 9 Oeste 17 Oeste 0.4 -- -- 100
2017-08-15 03:00:00 16.8 7 Oeste 15 Oeste 0 -- -- 100
2017-08-15 02:00:00 17.2 10 Noroeste 15 Noroeste 0 -- -- 100
2017-08-15 01:00:00 17.5 10 Noroeste 14 Noroeste 0 -- -- 99
2017-08-15 00:00:00 17.8 10 Noroeste 18 Noroeste 0 -- -- 97
2017-08-14 23:00:00 18.1 16 Noroeste 22 Noroeste 0 -- -- 98
2017-08-14 22:00:00 18.4 13 Oeste 18 Oeste 1.8 -- -- 98
2017-08-14 21:00:00 19.5 6 Noroeste 26 Noroeste 0.8 -- -- 95
2017-08-14 20:00:00 20.1 15 Oeste 38 Noroeste 0 -- -- 88
2017-08-14 19:00:00 22.4 14 Oeste 52 Oeste 0 -- -- 78
2017-08-14 18:00:00 23 16 Oeste 30 Oeste 0 -- -- 70
2017-08-14 17:00:00 27.5 17 Oeste 26 Oeste 0 -- -- 59
2017-08-14 16:00:00 28.6 12 Noroeste 17 Noroeste 0 -- -- 54
2017-08-14 15:00:00 28.2 12 Noroeste 32 Noroeste 0 -- -- 55
2017-08-14 14:00:00 27.7 18 Noroeste 27 Noroeste 0 -- -- 53
2017-08-14 13:00:00 24.1 21 Oeste 30 Oeste 0 -- -- 64
2017-08-14 12:00:00 24 5 Sudoeste 12 Oeste 0 -- -- 73
2017-08-14 11:00:00 20.5 4 Oeste 12 Oeste 0 -- -- 83
2017-08-14 10:00:00 16.9 4 Sudoeste 8 Oeste 0 -- -- 100
2017-08-14 09:00:00 15.2 0 Calma 6 Sudoeste 0 -- -- 100
2017-08-14 08:00:00 14.8 0 Calma 5 Este 0 -- -- 100
2017-08-14 07:00:00 14.8 3 Oeste 8 Noroeste 0 -- -- 100
2017-08-14 06:00:00 15.1 2 Sudoeste 12 Sudeste 0 -- -- 100
2017-08-14 05:00:00 15.8 9 Sudeste 15 Sudeste 0 -- -- 100
2017-08-14 04:00:00 15.9 5 Sudeste 14 Sudeste 0 -- -- 100
2017-08-14 03:00:00 15.9 11 Sudeste 18 Sudeste 0 -- -- 100
2017-08-14 02:00:00 16.2 7 Sudeste 12 Sudeste 0 -- -- 100
2017-08-14 01:00:00 16.4 5 Sur 10 Sudeste 0 -- -- 100
2017-08-14 00:00:00 16.4 6 Sudeste 13 Sudeste 0 -- -- 99
2017-08-13 23:00:00 16.8 9 Sudeste 15 Sudeste 0 -- -- 98
2017-08-13 22:00:00 17.2 8 Sudeste 18 Sudeste 0 -- -- 95
2017-08-13 21:00:00 17.9 5 Sudeste 21 Este 0 -- -- 91
2017-08-13 20:00:00 19.2 13 Sudeste 23 Sudeste 0 -- -- 86
2017-08-13 19:00:00 21.2 17 Sudeste 27 Este 0 -- -- 79
2017-08-13 18:00:00 23.3 16 Este 28 Este 0 -- -- 70
2017-08-13 17:00:00 24.9 16 Este 24 Sudeste 0 -- -- 65
2017-08-13 16:00:00 25.3 5 Noroeste 15 Sudoeste 0 -- -- 64
2017-08-13 15:00:00 25.2 6 Sudeste 19 Sudeste 0 -- -- 51
2017-08-13 14:00:00 24 7 Sudeste 15 Sudeste 0 -- -- 47
2017-08-13 13:00:00 21.9 4 Oeste 12 Oeste 0 -- -- 51
2017-08-13 12:00:00 20.3 5 Sur 12 Sur 0 -- -- 66
2017-08-13 11:00:00 17.2 2 Oeste 6 Noroeste 0 -- -- 91
2017-08-13 10:00:00 14.3 0 Calma 5 Sudoeste 0 -- -- 100
2017-08-13 09:00:00 12.5 0 Calma 4 Oeste 0 -- -- 100
2017-08-13 08:00:00 11.9 3 Sur 6 Este 0 -- -- 100
2017-08-13 07:00:00 12 3 Oeste 4 Oeste 0 -- -- 100
2017-08-13 06:00:00 12.3 0 Calma 4 Sudoeste 0 -- -- 100
2017-08-13 05:00:00 12.5 0 Calma 6 Sudoeste 0 -- -- 100
2017-08-13 04:00:00 12.3 4 Sudoeste 6 Este 0 -- -- 100
2017-08-13 03:00:00 13.2 0 Calma 4 Norte 0 -- -- 100
2017-08-13 02:00:00 13.3 0 Calma 4 Sudeste 0 -- -- 98
2017-08-13 01:00:00 13.6 3 Este 7 Sudeste 0 -- -- 98
2017-08-13 00:00:00 14.1 5 Sudeste 12 Sudeste 0 -- -- 96
2017-08-12 23:00:00 14.7 5 Sudeste 21 Este 0 -- -- 93
2017-08-12 22:00:00 15.8 12 Sudeste 17 Sudeste 0 -- -- 88
2017-08-12 21:00:00 18.8 9 Este 17 Este 0 -- -- 75
2017-08-12 20:00:00 21.2 6 Sur 15 Sudeste 0 -- -- 68
2017-08-12 19:00:00 22.9 6 Sur 16 Oeste 0 -- -- 62
2017-08-12 18:00:00 23 10 Oeste 22 Oeste 0 -- -- 66
2017-08-12 17:00:00 23.8 13 Oeste 21 Oeste 0 -- -- 65
2017-08-12 16:00:00 24 9 Oeste 21 Oeste 0 -- -- 64
2017-08-12 15:00:00 24.7 7 Noroeste 20 Oeste 0 -- -- 64
2017-08-12 14:00:00 23.8 4 Sur 13 Sudeste 0 -- -- 60
2017-08-12 13:00:00 22.4 4 Sudeste 11 Este 0 -- -- 64
2017-08-12 12:00:00 20 4 Este 9 Este 0 -- -- 76
2017-08-12 11:00:00 17.2 0 Calma 6 Nordeste 0 -- -- 88
2017-08-12 10:00:00 14.1 0 Calma 6 Nordeste 0 -- -- 100
2017-08-12 09:00:00 11.9 3 Sur 5 Sur 0 -- -- 100
2017-08-12 08:00:00 11.1 2 Sudoeste 4 Sudoeste 0 -- -- 100
2017-08-12 07:00:00 11.4 3 Oeste 7 Sudoeste 0 -- -- 100
2017-08-12 06:00:00 11.4 2 Sur 9 Sudeste 0 -- -- 100
2017-08-12 05:00:00 11.9 6 Sudeste 8 Sudeste 0 -- -- 100
2017-08-12 04:00:00 12.2 0 Calma 4 Sudoeste 0 -- -- 100
2017-08-12 03:00:00 12.5 5 Sudeste 8 Sudeste 0 -- -- 98
2017-08-12 02:00:00 13 3 Este 4 Sudeste 0 -- -- 96
2017-08-12 01:00:00 13.6 0 Calma 10 Sudeste 0 -- -- 93
2017-08-12 00:00:00 14.3 9 Sudeste 17 Sudeste 0 -- -- 92
2017-08-11 23:00:00 14.5 10 Sudeste 17 Este 0 -- -- 91
2017-08-11 22:00:00 14.9 13 Sudeste 23 Este 0 -- -- 89
2017-08-11 21:00:00 15.9 12 Sudeste 21 Sudeste 0 -- -- 85
2017-08-11 20:00:00 18.4 8 Sudeste 17 Sudoeste 0 -- -- 77
2017-08-11 19:00:00 21.5 5 Sur 15 Sur 0 -- -- 70
2017-08-11 18:00:00 22.3 5 Oeste 19 Oeste 0 -- -- 71
2017-08-11 17:00:00 21.6 12 Noroeste 21 Noroeste 0 -- -- 72
2017-08-11 16:00:00 21.6 8 Sudoeste 28 Oeste 0 -- -- 70
2017-08-11 15:00:00 22.1 12 Oeste 24 Oeste 0 -- -- 68
2017-08-11 14:00:00 19.8 8 Noroeste 18 Noroeste 0 -- -- 74
2017-08-11 13:00:00 20.6 4 Oeste 12 Oeste 0 -- -- 65
2017-08-11 12:00:00 18.8 4 Noroeste 11 Nordeste 0 -- -- 70
2017-08-11 11:00:00 16.4 3 Nordeste 9 Sudoeste 0 -- -- 81
2017-08-11 10:00:00 13.2 4 Sur 11 Este 0 -- -- 94
2017-08-11 09:00:00 11.3 0 Calma 10 Este 0 -- -- 98
2017-08-11 08:00:00 10.5 6 Este 8 Sudoeste 0 -- -- 99
2017-08-11 07:00:00 10.5 2 Norte 6 Nordeste 0 -- -- 100
2017-08-11 06:00:00 10.6 4 Este 10 Este 0 -- -- 98
2017-08-11 05:00:00 11.5 4 Sudeste 9 Sudoeste 0 -- -- 97
2017-08-11 04:00:00 11.9 7 Sudeste 9 Sudeste -- -- -- 96
2017-08-11 03:00:00 12.2 3 Oeste 8 Oeste 0 -- -- 95
2017-08-11 02:00:00 12.8 3 Noroeste 4 Noroeste 0 -- -- 92
2017-08-11 01:00:00 13 2 Noroeste 9 Oeste 0 -- -- 91
2017-08-11 00:00:00 13.3 8 Oeste 12 Oeste 0 -- -- 91
2017-08-10 23:00:00 13.4 8 Oeste 13 Oeste 0 -- -- 91
2017-08-10 22:00:00 13.3 10 Oeste 14 Noroeste 0 -- -- 91
2017-08-10 21:00:00 14.5 11 Noroeste 17 Noroeste 0 -- -- 85
2017-08-10 20:00:00 15.3 8 Noroeste 21 Noroeste 0 -- -- 78
2017-08-10 19:00:00 16 16 Norte 26 Norte 0 -- -- 76
2017-08-10 18:00:00 16.4 15 Norte 26 Norte 0 -- -- 78
2017-08-10 17:00:00 16.9 11 Noroeste 33 Norte 0 -- -- 76
2017-08-10 16:00:00 17.6 19 Norte 33 Norte 0 -- -- 70
2017-08-10 15:00:00 19.7 18 Norte 31 Norte 0 -- -- 69
2017-08-10 14:00:00 17.1 21 Norte 37 Noroeste 0 -- -- 72
2017-08-10 13:00:00 18.4 17 Noroeste 29 Oeste 0 -- -- 66
2017-08-10 12:00:00 17.2 15 Noroeste 24 Oeste 0 -- -- 68
2017-08-10 11:00:00 14.7 6 Noroeste 17 Noroeste 0 -- -- 87
2017-08-10 10:00:00 12.5 0 Calma 6 Oeste 0 -- -- 98
2017-08-10 09:00:00 11.4 5 Noroeste 13 Noroeste 0 -- -- 98
2017-08-10 08:00:00 11.3 11 Noroeste 17 Noroeste 0 -- -- 96
2017-08-10 07:00:00 11.4 11 Noroeste 21 Oeste 0 -- -- 93
2017-08-10 06:00:00 11.5 12 Oeste 21 Oeste 0 -- -- 92
2017-08-10 05:00:00 11.1 8 Noroeste 13 Noroeste 0 -- -- 94
2017-08-10 04:00:00 11.4 10 Noroeste 16 Oeste 0 -- -- 94
2017-08-10 03:00:00 11.9 6 Noroeste 12 Noroeste 0 -- -- 90
2017-08-10 02:00:00 11.9 5 Oeste 11 Norte 0 -- -- 90
2017-08-10 01:00:00 12 5 Noroeste 13 Noroeste 0 -- -- 91
2017-08-10 00:00:00 12.2 12 Noroeste 15 Oeste 0 -- -- 91
2017-08-09 23:00:00 12.1 13 Oeste 19 Sudoeste 0 -- -- 89
2017-08-09 22:00:00 12.9 12 Oeste 27 Oeste 0 -- -- 87
2017-08-09 21:00:00 13.6 17 Oeste 33 Oeste 0 -- -- 82
2017-08-09 20:00:00 13.3 17 Noroeste 29 Noroeste 0 -- -- 87
2017-08-09 19:00:00 13.1 19 Noroeste 33 Noroeste 0.2 -- -- 86
2017-08-09 18:00:00 13.3 16 Noroeste 36 Oeste 1 -- -- 91
2017-08-09 17:00:00 13.4 21 Oeste 41 Noroeste 0.2 -- -- 89
2017-08-09 16:00:00 14.3 32 Norte 45 Norte 0 -- -- 81
2017-08-09 15:00:00 15.5 9 Noroeste 22 Sudoeste 0 -- -- 82
2017-08-09 14:00:00 13 15 Oeste 33 Noroeste 0.8 -- -- 95
2017-08-09 13:00:00 15 13 Oeste 42 Oeste 1 -- -- 89
2017-08-09 12:00:00 14.6 20 Noroeste 30 Oeste 0 -- -- 82
2017-08-09 11:00:00 13.7 10 Norte 20 Noroeste 0 -- -- 100
2017-08-09 10:00:00 11.7 8 Noroeste 22 Norte 0.2 -- -- 100
2017-08-09 09:00:00 11 5 Noroeste 21 Oeste 0.2 -- -- 100
2017-08-09 08:00:00 10.6 8 Norte 32 Oeste 0.2 -- -- 100
2017-08-09 07:00:00 10.6 18 Oeste 42 Noroeste 0.6 -- -- 100
2017-08-09 06:00:00 11.3 22 Oeste 39 Noroeste 0.6 -- -- 98
2017-08-09 05:00:00 12.8 13 Noroeste 25 Noroeste 0 -- -- 87
2017-08-09 04:00:00 13 15 Noroeste 22 Noroeste 0 -- -- 84
2017-08-09 03:00:00 13 6 Norte 26 Oeste 0 -- -- 88
2017-08-09 02:00:00 13 15 Noroeste 28 Noroeste 0 -- -- 90
2017-08-09 01:00:00 13.3 11 Noroeste 17 Noroeste 0 -- -- 87
2017-08-09 00:00:00 13.6 9 Oeste 17 Oeste 0 -- -- 85
2017-08-08 23:00:00 13.5 8 Norte 14 Noroeste 0 -- -- 87
2017-08-08 22:00:00 13.6 8 Noroeste 21 Oeste 0 -- -- 89
2017-08-08 21:00:00 14.2 14 Noroeste 32 Norte 0 -- -- 80
2017-08-08 20:00:00 14.8 23 Noroeste 37 Noroeste 0 -- -- 81
2017-08-08 19:00:00 15.6 19 Norte 31 Noroeste 0 -- -- 82
2017-08-08 18:00:00 16.4 17 Norte 33 Norte 0 -- -- 80
2017-08-08 17:00:00 16.6 24 Noroeste 36 Norte 0 -- -- 80
2017-08-08 16:00:00 16.8 17 Norte 39 Noroeste 0 -- -- 79
2017-08-08 15:00:00 19.4 15 Norte 35 Noroeste 0 -- -- 70
2017-08-08 14:00:00 17.4 13 Noroeste 27 Oeste 0 -- -- 80
2017-08-08 13:00:00 15.6 5 Noroeste 10 Norte 0 -- -- 90
2017-08-08 12:00:00 13.7 6 Norte 33 Norte 0 -- -- 100
2017-08-08 11:00:00 13.2 13 Noroeste 25 Noroeste 0 -- -- 96
2017-08-08 10:00:00 13.1 8 Oeste 13 Oeste 0 -- -- 97
2017-08-08 09:00:00 12.1 2 Noroeste 8 Noroeste 0 -- -- 100
2017-08-08 08:00:00 11 6 Oeste 16 Noroeste 0 -- -- 100
2017-08-08 07:00:00 11.2 3 Oeste 5 Noroeste 0 -- -- 100
2017-08-08 06:00:00 11.5 4 Oeste 11 Norte 0 -- -- 100
2017-08-08 05:00:00 11.8 5 Norte 10 Noroeste 0 -- -- 100
2017-08-08 04:00:00 12.1 6 Noroeste 12 Noroeste 0.4 -- -- 100
2017-08-08 03:00:00 12.1 3 Norte 13 Norte 0 -- -- 100
2017-08-08 02:00:00 12.1 6 Noroeste 30 Sudoeste 0.2 -- -- 100
2017-08-08 01:00:00 12.5 16 Oeste 32 Oeste 0.6 -- -- 100
2017-08-08 00:00:00 12.9 18 Oeste 27 Noroeste 1.4 -- -- 100
2017-08-07 23:00:00 13.2 17 Oeste 32 Oeste 0.2 -- -- 100
2017-08-07 22:00:00 13.5 15 Oeste 25 Oeste 0.6 -- -- 100
2017-08-07 21:00:00 13.7 15 Oeste 30 Noroeste 3 -- -- 100
2017-08-07 20:00:00 14.7 16 Noroeste 26 Noroeste 0.8 -- -- 100
2017-08-07 19:00:00 14.8 16 Oeste 27 Oeste 0.2 -- -- 100
2017-08-07 18:00:00 15.2 17 Oeste 27 Oeste 0 -- -- 100
2017-08-07 17:00:00 16.1 19 Noroeste 24 Noroeste 0 -- -- 99
2017-08-07 16:00:00 17.1 12 Norte 18 Norte 0 -- -- 94
2017-08-07 15:00:00 17.8 9 Noroeste 13 Noroeste 0 -- -- 89
2017-08-07 14:00:00 18.6 0 Calma 11 Norte 0 -- -- 85
2017-08-07 13:00:00 18.7 6 Norte 10 Norte 0 -- -- 84
2017-08-07 12:00:00 18.3 5 Noroeste 10 Noroeste 0 -- -- 83
2017-08-07 11:00:00 17.1 3 Sudoeste 5 Noroeste 0 -- -- 87
2017-08-07 10:00:00 15.9 4 Sudoeste 8 Sudoeste 0 -- -- 93
2017-08-07 09:00:00 15.2 4 Sudeste 9 Sudeste 0 -- -- 94
2017-08-07 08:00:00 14.5 6 Sudeste 10 Este 0 -- -- 97
2017-08-07 07:00:00 14.6 3 Este 10 Sudeste 0 -- -- 95
2017-08-07 06:00:00 14.6 6 Este 10 Este 0 -- -- 95
2017-08-07 05:00:00 14.7 8 Este 18 Este 0 -- -- 95
2017-08-07 04:00:00 14.7 4 Sur 15 Sudeste 0 -- -- 95
2017-08-07 03:00:00 14.8 6 Sudeste 13 Sudeste 0 -- -- 95
2017-08-07 02:00:00 14.7 3 Sur 14 Sudeste 0 -- -- 97
2017-08-07 01:00:00 14.8 10 Sudeste 15 Este 0 -- -- 96
2017-08-07 00:00:00 14.9 9 Sudeste 17 Este 0 -- -- 95
2017-08-06 23:00:00 14.9 7 Este 15 Este 0 -- -- 94
2017-08-06 22:00:00 15 9 Este 21 Este 0 -- -- 92
2017-08-06 21:00:00 15.2 9 Este 27 Este 0 -- -- 90
2017-08-06 20:00:00 15.5 12 Este 27 Este 0 -- -- 88
2017-08-06 19:00:00 15.8 17 Este 33 Sudeste 0 -- -- 87
2017-08-06 18:00:00 16.2 21 Este 33 Este 0 -- -- 85
2017-08-06 17:00:00 17.3 13 Este 24 Este 0 -- -- 82
2017-08-06 16:00:00 18.4 10 Sudeste 19 Sudeste 0 -- -- 78
2017-08-06 15:00:00 18 8 Sudeste 38 Este 0 -- -- 83
2017-08-06 14:00:00 17.5 24 Este 38 Este 0 -- -- 77
2017-08-06 13:00:00 17.1 22 Este 35 Sudeste 0 -- -- 79
2017-08-06 12:00:00 15.8 19 Este 32 Este 0 -- -- 92
2017-08-06 11:00:00 15 17 Este 32 Este 0 -- -- 100
2017-08-06 10:00:00 13.7 21 Este 32 Este 0 -- -- 100
2017-08-06 09:00:00 13.3 18 Este 32 Este 0 -- -- 100
2017-08-06 08:00:00 13.1 13 Sudeste 26 Sudeste 0 -- -- 100
2017-08-06 07:00:00 13 13 Sudeste 27 Este 0.2 -- -- 100
2017-08-06 06:00:00 13.3 15 Sudeste 23 Este 0 -- -- 100
2017-08-06 05:00:00 13.5 15 Sudeste 25 Sudeste 0.2 -- -- 100
2017-08-06 04:00:00 13.8 14 Sudeste 21 Sudeste 0.2 -- -- 100
2017-08-06 03:00:00 13.9 9 Sudeste 14 Este 0.2 -- -- 100
2017-08-06 02:00:00 13.8 3 Sudeste 13 Sudeste 0 -- -- 100
2017-08-06 01:00:00 13.8 8 Sudeste 11 Sudeste 0 -- -- 100
2017-08-06 00:00:00 13.9 5 Sudeste 10 Sudeste 0 -- -- 100
2017-08-05 23:00:00 14.3 6 Sudeste 9 Sudeste 0 -- -- 100
2017-08-05 22:00:00 14.4 0 Calma 3 Este 0.2 -- -- 100
2017-08-05 21:00:00 14.5 0 Calma 4 Sudoeste 0 -- -- 100
2017-08-05 20:00:00 14.9 3 Sudoeste 5 Este 0 -- -- 100
2017-08-05 19:00:00 15 3 Sudeste 9 Sudeste 0 -- -- 100
2017-08-05 18:00:00 15.4 2 Sur 10 Sudoeste 0.4 -- -- 100
2017-08-05 17:00:00 15.1 10 Sudoeste 19 Oeste 1.2 -- -- 100
2017-08-05 16:00:00 15.6 15 Sudoeste 23 Oeste 0 -- -- 100
2017-08-05 15:00:00 15.9 13 Oeste 20 Noroeste 0.2 -- -- 100
2017-08-05 14:00:00 16 7 Oeste 24 Oeste 0.2 -- -- 100
2017-08-05 13:00:00 15 21 Oeste 26 Oeste 0.4 -- -- 100
2017-08-05 12:00:00 15 19 Oeste 28 Sudoeste 0.4 -- -- 100
2017-08-05 11:00:00 16 13 Oeste 26 Oeste 0 -- -- 100
2017-08-05 10:00:00 15.2 19 Oeste 25 Oeste 0.2 -- -- 100
2017-08-05 09:00:00 15.3 14 Oeste 22 Oeste 0 -- -- 100
2017-08-05 08:00:00 15.3 14 Oeste 27 Oeste 0 -- -- 100
2017-08-05 07:00:00 15.6 19 Oeste 30 Oeste 0 -- -- 100
2017-08-05 06:00:00 16.6 17 Oeste 31 Oeste 0.2 -- -- 100
2017-08-05 05:00:00 17.3 20 Oeste 28 Oeste 0.8 -- -- 100
2017-08-05 04:00:00 18.5 13 Oeste 21 Oeste 1 -- -- 100
2017-08-05 03:00:00 18.9 8 Oeste 12 Oeste 0.2 -- -- 100
2017-08-05 02:00:00 19.2 5 Oeste 9 Oeste 0 -- -- 100
2017-08-05 01:00:00 19.6 0 Calma 13 Sudeste 0 -- -- 100
2017-08-05 00:00:00 19.7 8 Sudeste 17 Sudeste 0 -- -- 99
2017-08-04 23:00:00 19.9 6 Este 14 Sudeste 0 -- -- 98
2017-08-04 22:00:00 20.2 2 Sudoeste 9 Oeste 0 -- -- 97
2017-08-04 21:00:00 20.5 8 Oeste 13 Oeste 0 -- -- 95
2017-08-04 20:00:00 22.1 11 Oeste 17 Sudoeste 0 -- -- 89
2017-08-04 19:00:00 26.2 5 Oeste 21 Sur 0 -- -- 75
2017-08-04 18:00:00 26.5 8 Sudoeste 17 Oeste 0 -- -- 76
2017-08-04 17:00:00 26.1 13 Oeste 28 Oeste 0 -- -- 75
2017-08-04 16:00:00 27.7 15 Oeste 23 Oeste 0 -- -- 68
2017-08-04 15:00:00 27.7 18 Oeste 28 Oeste 0 -- -- 67
2017-08-04 14:00:00 27.8 14 Oeste 21 Oeste 0 -- -- 66
2017-08-04 13:00:00 27.9 8 Oeste 19 Noroeste 0 -- -- 63
2017-08-04 12:00:00 26.5 4 Sudoeste 13 Sur 0 -- -- 67
2017-08-04 11:00:00 23.8 5 Sudeste 11 Sudeste 0 -- -- 78
2017-08-04 10:00:00 19.7 3 Sudoeste 6 Sudoeste 0 -- -- 100
2017-08-04 09:00:00 17.9 2 Este 6 Norte 0 -- -- 100
2017-08-04 08:00:00 16.8 2 Este 4 Nordeste 0 -- -- 100
2017-08-04 07:00:00 16.2 0 Calma 8 Sudoeste 0 -- -- 100
2017-08-04 06:00:00 15.8 5 Sudoeste 7 Sudoeste 0 -- -- 100
2017-08-04 05:00:00 16 2 Sudoeste 7 Sudeste 0 -- -- 100
2017-08-04 04:00:00 16.3 4 Sudeste 6 Sudoeste 0 -- -- 100
2017-08-04 03:00:00 16.8 0 Calma 8 Sudeste 0 -- -- 100
2017-08-04 02:00:00 17 2 Sudeste 6 Sudeste 0 -- -- 100
2017-08-04 01:00:00 17 0 Calma 6 Sudeste 0 -- -- 100
2017-08-04 00:00:00 17.1 2 Oeste 12 Este 0 -- -- 100
2017-08-03 23:00:00 17.3 7 Sudeste 15 Sudeste 0 -- -- 100
2017-08-03 22:00:00 17.5 9 Sudeste 15 Sudeste 0 -- -- 100
2017-08-03 21:00:00 17.9 4 Sur 12 Este 0 -- -- 98
2017-08-03 20:00:00 18 13 Sudoeste 17 Oeste 0 -- -- 95
2017-08-03 19:00:00 20.1 9 Oeste 14 Oeste 0 -- -- 87
2017-08-03 18:00:00 22.4 7 Sudeste 17 Este 0 -- -- 83
2017-08-03 17:00:00 21.5 6 Sudoeste 19 Sudoeste 0 -- -- 90
2017-08-03 16:00:00 21.2 13 Oeste 24 Sudoeste 0 -- -- 88
2017-08-03 15:00:00 21.5 18 Oeste 25 Oeste 0 -- -- 86
2017-08-03 14:00:00 23.1 17 Oeste 25 Oeste 0 -- -- 78
2017-08-03 13:00:00 24.1 10 Oeste 24 Sudoeste 0 -- -- 71
2017-08-03 12:00:00 23.2 15 Oeste 31 Oeste 0 -- -- 70
2017-08-03 11:00:00 23.4 2 Oeste 7 Oeste 0 -- -- 74
2017-08-03 10:00:00 19.8 2 Sur 6 Sudoeste 0 -- -- 83
2017-08-03 09:00:00 17.5 4 Nordeste 6 Este 0 -- -- 88
2017-08-03 08:00:00 16.5 0 Calma 4 Nordeste 0 -- -- 87
2017-08-03 07:00:00 16.4 0 Calma 3 Oeste 0 -- -- 88
2017-08-03 06:00:00 16.6 0 Calma 4 Oeste 0 -- -- 89
2017-08-03 05:00:00 16.2 3 Sudoeste 6 Sudoeste 0 -- -- 91
2017-08-03 04:00:00 16.4 2 Nordeste 5 Sur 0 -- -- 90
2017-08-03 03:00:00 16.9 3 Sudeste 10 Oeste 0 -- -- 89
2017-08-03 02:00:00 17.3 5 Oeste 9 Oeste 0 -- -- 89
2017-08-03 01:00:00 17.7 6 Oeste 10 Oeste 0 -- -- 90
2017-08-03 00:00:00 17.7 9 Sudeste 18 Sudeste 0 -- -- 91
2017-08-02 23:00:00 18.3 9 Este 12 Sudeste 0 -- -- 88
2017-08-02 22:00:00 19.8 10 Sudeste 16 Sudeste 0 -- -- 83
2017-08-02 21:00:00 22.5 10 Sudeste 17 Sudeste 0 -- -- 75
2017-08-02 20:00:00 24.9 9 Oeste 16 Oeste 0 -- -- 54
2017-08-02 19:00:00 25.1 12 Oeste 19 Oeste 0 -- -- 53
2017-08-02 18:00:00 25.6 11 Noroeste 19 Noroeste 0 -- -- 61
2017-08-02 17:00:00 24.3 15 Noroeste 27 Oeste 0 -- -- 73
2017-08-02 16:00:00 23.8 19 Oeste 30 Oeste 0 -- -- 76
2017-08-02 15:00:00 24.3 13 Oeste 22 Oeste 0 -- -- 74
2017-08-02 14:00:00 23.9 15 Oeste 23 Oeste 0 -- -- 77
2017-08-02 13:00:00 23.9 4 Norte 10 Este 0 -- -- 77
2017-08-02 12:00:00 21.7 4 Este 10 Este 0 -- -- 83
2017-08-02 11:00:00 18.9 4 Sudeste 10 Sudeste 0 -- -- 100
2017-08-02 10:00:00 16.4 3 Sudoeste 7 Este 0 -- -- 100
2017-08-02 09:00:00 15.4 4 Este 9 Oeste 0 -- -- 100
2017-08-02 08:00:00 13.7 8 Oeste 13 Oeste 0 -- -- 100
2017-08-02 07:00:00 14.2 2 Oeste 9 Oeste 0 -- -- 100
2017-08-02 06:00:00 14.7 5 Oeste 9 Oeste 0 -- -- 100
2017-08-02 05:00:00 15.4 0 Calma 6 Nordeste 0 -- -- 100
2017-08-02 04:00:00 15.7 4 Nordeste 10 Este 0 -- -- 100
2017-08-02 03:00:00 15.8 4 Sudeste 13 Este 0 -- -- 100
2017-08-02 02:00:00 15.7 8 Sudeste 12 Este 0.2 -- -- 100
2017-08-02 01:00:00 15.8 9 Sudeste 11 Oeste 0 -- -- 100
2017-08-02 00:00:00 15.9 7 Oeste 9 Oeste 0.2 -- -- 100
2017-08-01 23:00:00 15.9 6 Sudoeste 9 Sudoeste 0.4 -- -- 100
2017-08-01 22:00:00 16 6 Sudoeste 12 Sudoeste 0.4 -- -- 100
2017-08-01 21:00:00 16.5 7 Sudoeste 9 Sudoeste 0.6 -- -- 100
2017-08-01 20:00:00 16.8 6 Oeste 14 Oeste 0 -- -- 100
2017-08-01 19:00:00 18 7 Noroeste 11 Noroeste 0 -- -- 97
2017-08-01 18:00:00 17.7 6 Oeste 18 Oeste 0.2 -- -- 100
2017-08-01 17:00:00 16.7 14 Oeste 24 Oeste 0.2 -- -- 100
2017-08-01 16:00:00 16.8 14 Oeste 22 Oeste 0 -- -- 100
2017-08-01 15:00:00 16.7 13 Oeste 23 Noroeste 0.4 -- -- 100
2017-08-01 14:00:00 17.4 13 Oeste 22 Oeste 0 -- -- 96
2017-08-01 13:00:00 17.1 14 Oeste 21 Oeste 0 -- -- 100
2017-08-01 12:00:00 16.8 12 Oeste 18 Oeste 0 -- -- 100
2017-08-01 11:00:00 16.9 7 Norte 10 Norte 0 -- -- 100
2017-08-01 10:00:00 15.9 4 Oeste 8 Oeste 0.2 -- -- 100
2017-08-01 09:00:00 15 4 Noroeste 6 Noroeste 0 -- -- 100
2017-08-01 08:00:00 14.7 3 Oeste 8 Oeste 0 -- -- 100
2017-08-01 07:00:00 14.5 6 Noroeste 13 Oeste 0.4 -- -- 100
2017-08-01 06:00:00 14.4 8 Oeste 12 Oeste 0 -- -- 100
2017-08-01 05:00:00 14.3 9 Oeste 15 Oeste 0.2 -- -- 100
2017-08-01 04:00:00 14.5 10 Oeste 12 Sudoeste 0.8 -- -- 100
2017-08-01 03:00:00 14.8 6 Oeste 10 Oeste 0 -- -- 100
2017-08-01 02:00:00 15.1 4 Oeste 11 Este 0 -- -- 100
2017-08-01 01:00:00 15.1 5 Sudeste 12 Este 0.2 -- -- 100
2017-08-01 00:00:00 15.3 4 Sudeste 6 Sudeste 0.4 -- -- 100
2017-07-31 23:00:00 15.4 0 Calma 5 Sudoeste 1.4 -- -- 100
2017-07-31 22:00:00 15.5 3 Sudoeste 8 Sudoeste 0 -- -- 100
2017-07-31 21:00:00 15.9 2 Sudoeste 8 Oeste 0 -- -- 99
2017-07-31 20:00:00 16 8 Sudoeste 14 Sudoeste 0.2 -- -- 98
2017-07-31 19:00:00 16.7 10 Oeste 13 Oeste 0 -- -- 94
2017-07-31 18:00:00 17.7 5 Sudeste 8 Sudeste 0 -- -- 90
2017-07-31 17:00:00 17.5 3 Sur 10 Sudeste 0 -- -- 92
2017-07-31 16:00:00 16.9 8 Sudeste 15 Sudeste 0 -- -- 90
2017-07-31 15:00:00 18.3 3 Oeste 10 Sudoeste 0 -- -- 89
2017-07-31 14:00:00 16.9 5 Oeste 9 Oeste 0 -- -- 94
2017-07-31 13:00:00 16.7 5 Noroeste 10 Oeste 0 -- -- 93
2017-07-31 12:00:00 16.5 2 Noroeste 11 Noroeste 0 -- -- 94
2017-07-31 11:00:00 15.6 4 Oeste 17 Sudeste 0 -- -- 100
2017-07-31 10:00:00 14.7 7 Sudeste 12 Sudeste 0 -- -- 100
2017-07-31 09:00:00 14 4 Sudoeste 12 Sudoeste 0 -- -- 100
2017-07-31 08:00:00 13.6 3 Sudoeste 6 Oeste 0 -- -- 100
2017-07-31 07:00:00 13.4 4 Oeste 9 Oeste 0 -- -- 100
2017-07-31 06:00:00 13.4 4 Oeste 6 Noroeste 0 -- -- 100
2017-07-31 05:00:00 13.4 5 Oeste 9 Oeste 0 -- -- 100
2017-07-31 04:00:00 13.4 6 Oeste 15 Oeste 0 -- -- 100
2017-07-31 03:00:00 13.4 11 Oeste 14 Oeste 0 -- -- 100
2017-07-31 02:00:00 13.9 8 Sudoeste 13 Este 0 -- -- 100
2017-07-31 01:00:00 14.2 3 Oeste 11 Oeste 0 -- -- 100
2017-07-31 00:00:00 14.6 4 Sudoeste 8 Oeste 0 -- -- 100
2017-07-30 23:00:00 14.7 0 Calma 5 Sudoeste 0 -- -- 100
2017-07-30 22:00:00 14.7 3 Sur 6 Sudeste 0.2 -- -- 100
2017-07-30 21:00:00 14.9 6 Sudoeste 15 Sudoeste 0.2 -- -- 99
2017-07-30 20:00:00 15.6 11 Oeste 16 Oeste 0 -- -- 96
2017-07-30 19:00:00 16.4 9 Sudoeste 16 Sudoeste 0 -- -- 93
2017-07-30 18:00:00 16.3 13 Oeste 24 Oeste 0 -- -- 92
2017-07-30 17:00:00 16.4 17 Oeste 26 Oeste 0 -- -- 94
2017-07-30 16:00:00 16.8 15 Oeste 23 Oeste 0.2 -- -- 98
2017-07-30 15:00:00 16.9 13 Oeste 22 Oeste 0.2 -- -- 100
2017-07-30 14:00:00 16.9 15 Sudoeste 22 Oeste 0 -- -- 99
2017-07-30 13:00:00 16.8 19 Sudoeste 24 Sudoeste 0.2 -- -- 97
2017-07-30 12:00:00 17.9 18 Sudoeste 24 Sudoeste 0 -- -- 93
2017-07-30 11:00:00 17.8 19 Oeste 26 Oeste 0 -- -- 92
2017-07-30 10:00:00 19 3 Oeste 8 Oeste 0 -- -- 91
2017-07-30 09:00:00 18.5 0 Calma 5 Noroeste 0 -- -- 96
2017-07-30 08:00:00 17.9 3 Sudeste 14 Sudeste 0 -- -- 96
2017-07-30 07:00:00 17.9 0 Calma 4 Sudoeste 0 -- -- 97
2017-07-30 06:00:00 18 0 Calma 4 Este 0 -- -- 96
2017-07-30 05:00:00 18 4 Oeste 9 Oeste 0 -- -- 97
2017-07-30 04:00:00 18.2 6 Oeste 10 Sudoeste 0 -- -- 95
2017-07-30 03:00:00 18.3 9 Sudoeste 11 Sudoeste 0 -- -- 93
2017-07-30 02:00:00 18.9 3 Sur 14 Sudoeste 0 -- -- 88
2017-07-30 01:00:00 19.5 11 Sudoeste 14 Sudoeste 0 -- -- 84
2017-07-30 00:00:00 20.1 4 Este 9 Este 0 -- -- 80
2017-07-29 23:00:00 20.4 5 Sudeste 9 Este 0 -- -- 79
2017-07-29 22:00:00 20.5 8 Sudoeste 19 Sudoeste 0 -- -- 79
2017-07-29 21:00:00 23.4 12 Sudoeste 17 Oeste 0 -- -- 70
2017-07-29 20:00:00 25.6 14 Este 21 Este 0 -- -- 65
2017-07-29 19:00:00 28.5 6 Sudoeste 14 Sudoeste 0 -- -- 61
2017-07-29 18:00:00 29 7 Oeste 17 Oeste 0 -- -- 56
2017-07-29 17:00:00 29.4 8 Este 26 Sudeste 0 -- -- 54
2017-07-29 16:00:00 29.5 15 Este 28 Este 0 -- -- 54
2017-07-29 15:00:00 29.3 14 Este 30 Este 0 -- -- 59
2017-07-29 14:00:00 27.3 9 Oeste 22 Norte 0 -- -- 61
2017-07-29 13:00:00 26.5 12 Noroeste 19 Noroeste 0 -- -- 59
2017-07-29 12:00:00 25 8 Oeste 15 Noroeste 0 -- -- 67
2017-07-29 11:00:00 23.4 3 Este 9 Este 0 -- -- 76
2017-07-29 10:00:00 20.1 0 Calma 6 Nordeste 0 -- -- 88
2017-07-29 09:00:00 17 3 Sudoeste 13 Sudoeste 0 -- -- 95
2017-07-29 08:00:00 15.9 5 Sur 14 Sudeste 0 -- -- 96
2017-07-29 07:00:00 16.3 8 Sudeste 10 Sudeste 0 -- -- 93
2017-07-29 06:00:00 16.1 0 Calma 4 Oeste 0 -- -- 94
2017-07-29 05:00:00 16 2 Oeste 9 Sudeste 0 -- -- 98
2017-07-29 04:00:00 16.2 8 Sudeste 14 Sudeste 0 -- -- 98
2017-07-29 03:00:00 16.7 5 Este 7 Sudeste 0 -- -- 97
2017-07-29 02:00:00 16.9 3 Oeste 12 Sudeste 0 -- -- 95
2017-07-29 01:00:00 17.5 6 Sudeste 13 Sudeste 0 -- -- 96
2017-07-29 00:00:00 18.3 9 Sudeste 12 Sudeste 0 -- -- 91
2017-07-28 23:00:00 19.3 0 Calma 5 Sudoeste 0 -- -- 84
2017-07-28 22:00:00 20.1 4 Sur 7 Sudoeste 0 -- -- 82
2017-07-28 21:00:00 21.2 3 Oeste 15 Oeste 0 -- -- 70
2017-07-28 20:00:00 22.1 12 Oeste 19 Oeste 0 -- -- 74
2017-07-28 19:00:00 23.8 14 Oeste 20 Oeste 0 -- -- 63
2017-07-28 18:00:00 26 4 Noroeste 16 Noroeste 0 -- -- 61
2017-07-28 17:00:00 26.3 12 Oeste 20 Oeste 0 -- -- 61
2017-07-28 16:00:00 26.4 11 Noroeste 16 Noroeste 0 -- -- 63
2017-07-28 15:00:00 25.7 7 Sudeste 14 Oeste 0 -- -- 69
2017-07-28 14:00:00 24.1 3 Este 12 Sudeste 0 -- -- 70
2017-07-28 13:00:00 23 6 Este 12 Este 0.2 -- -- 82
2017-07-28 12:00:00 20.9 8 Nordeste 15 Nordeste 0 -- -- 97
2017-07-28 11:00:00 18.4 4 Este 9 Sudeste 0 -- -- 100
2017-07-28 10:00:00 17.1 2 Nordeste 6 Norte 0 -- -- 100
2017-07-28 09:00:00 17.1 3 Nordeste 10 Sudeste 0 -- -- 100
2017-07-28 08:00:00 15.8 3 Sudoeste 5 Oeste 0 -- -- 100
2017-07-28 07:00:00 15.8 4 Oeste 11 Sudeste 0 -- -- 100
2017-07-28 06:00:00 15.8 6 Sudeste 10 Este 0 -- -- 100
2017-07-28 05:00:00 15.8 2 Este 6 Sudoeste 0.2 -- -- 100
2017-07-28 04:00:00 15.9 2 Sudoeste 10 Este 0 -- -- 100
2017-07-28 03:00:00 15.8 4 Sudoeste 13 Oeste 0.2 -- -- 100
2017-07-28 02:00:00 15.9 8 Oeste 15 Oeste 0 -- -- 100
2017-07-28 01:00:00 16.2 12 Oeste 21 Oeste 0.2 -- -- 100
2017-07-28 00:00:00 16.5 15 Oeste 22 Oeste 0.2 -- -- 100
2017-07-27 23:00:00 16.8 13 Oeste 19 Oeste 0.2 -- -- 100
2017-07-27 22:00:00 17.2 11 Oeste 21 Oeste 0.4 -- -- 100
2017-07-27 21:00:00 17.6 17 Oeste 24 Sudoeste 0.2 -- -- 99
2017-07-27 20:00:00 18.5 17 Oeste 23 Oeste 0 -- -- 96
2017-07-27 19:00:00 19.7 18 Oeste 30 Oeste 0 -- -- 92
2017-07-27 18:00:00 22.9 19 Oeste 26 Oeste 0 -- -- 80
2017-07-27 17:00:00 25.5 17 Oeste 28 Oeste 0 -- -- 71
2017-07-27 16:00:00 25 18 Oeste 28 Oeste 0 -- -- 70
2017-07-27 15:00:00 25.2 18 Oeste 28 Oeste 0 -- -- 70
2017-07-27 14:00:00 26.1 11 Noroeste 27 Noroeste 0 -- -- 62
2017-07-27 13:00:00 26.2 5 Norte 22 Noroeste 0 -- -- 61
2017-07-27 12:00:00 24.1 4 Noroeste 10 Oeste 0 -- -- 67
2017-07-27 11:00:00 21.4 5 Nordeste 9 Oeste 0 -- -- 83
2017-07-27 10:00:00 17 6 Sudoeste 9 Sudoeste 0 -- -- 100
2017-07-27 09:00:00 14.9 2 Sudoeste 8 Sudoeste 0 -- -- 100
2017-07-27 08:00:00 14.1 3 Oeste 6 Oeste 0 -- -- 100
2017-07-27 07:00:00 13.8 4 Sudeste 7 Sudeste 0 -- -- 100
2017-07-27 06:00:00 14.5 0 Calma 5 Nordeste 0 -- -- 100
2017-07-27 05:00:00 14.9 3 Nordeste 5 Nordeste 0 -- -- 100
2017-07-27 04:00:00 15.3 0 Calma 4 Nordeste 0 -- -- 100
2017-07-27 03:00:00 15.5 0 Calma 6 Este 0 -- -- 100
2017-07-27 02:00:00 15.6 3 Oeste 6 Noroeste 0 -- -- 100
2017-07-27 01:00:00 15.5 0 Calma 6 Sudeste 0 -- -- 100
2017-07-27 00:00:00 15.8 6 Este 13 Sudoeste 0 -- -- 100
2017-07-26 23:00:00 15.9 11 Oeste 16 Oeste 0 -- -- 98
2017-07-26 22:00:00 17.6 13 Sudeste 15 Sudeste 0 -- -- 91
2017-07-26 21:00:00 20.2 8 Oeste 17 Sudoeste 0 -- -- 83
2017-07-26 20:00:00 21.3 12 Oeste 20 Oeste 0 -- -- 79
2017-07-26 19:00:00 22.7 17 Oeste 23 Oeste 0 -- -- 74
2017-07-26 18:00:00 25.1 14 Oeste 19 Oeste 0 -- -- 69
2017-07-26 17:00:00 25.8 13 Noroeste 21 Noroeste 0 -- -- 64
2017-07-26 16:00:00 24.7 10 Noroeste 22 Noroeste 0 -- -- 67
2017-07-26 15:00:00 23.8 12 Noroeste 24 Oeste 0 -- -- 69
2017-07-26 14:00:00 24 13 Noroeste 20 Noroeste 0 -- -- 68
2017-07-26 13:00:00 22.1 8 Oeste 13 Noroeste 0 -- -- 73
2017-07-26 12:00:00 20.6 7 Oeste 12 Oeste 0 -- -- 79
2017-07-26 11:00:00 18.5 2 Norte 9 Este 0 -- -- 89
2017-07-26 10:00:00 15.6 0 Calma 5 Oeste 0 -- -- 100
2017-07-26 09:00:00 13.9 2 Este 6 Sudoeste 0 -- -- 100
2017-07-26 08:00:00 12.9 5 Sudoeste 13 Sudoeste 0 -- -- 100
2017-07-26 07:00:00 12.6 3 Oeste 5 Oeste 0 -- -- 100
2017-07-26 06:00:00 12.7 3 Oeste 5 Sudoeste 0 -- -- 100
2017-07-26 05:00:00 12.9 3 Sudoeste 8 Sudeste 0 -- -- 100
2017-07-26 04:00:00 13.3 3 Este 5 Sudeste 0 -- -- 100
2017-07-26 03:00:00 13.6 4 Sudeste 7 Sudeste 0 -- -- 100
2017-07-26 02:00:00 14.1 7 Sudeste 9 Sudeste 0 -- -- 98
2017-07-26 01:00:00 14.7 0 Calma 6 Oeste 0 -- -- 96
2017-07-26 00:00:00 15 4 Oeste 9 Oeste 0 -- -- 96
2017-07-25 23:00:00 15.2 3 Oeste 13 Sudoeste 0 -- -- 94
2017-07-25 22:00:00 15.5 10 Sudoeste 14 Oeste 0 -- -- 93
2017-07-25 21:00:00 16.3 7 Sudoeste 17 Oeste 0 -- -- 91
2017-07-25 20:00:00 16.6 12 Oeste 18 Oeste 0 -- -- 89
2017-07-25 19:00:00 17.8 12 Oeste 24 Oeste 0 -- -- 86
2017-07-25 18:00:00 17.7 18 Oeste 26 Oeste 0 -- -- 85
2017-07-25 17:00:00 18.8 14 Oeste 22 Oeste 0 -- -- 79
2017-07-25 16:00:00 19.7 15 Oeste 26 Oeste 0 -- -- 76
2017-07-25 15:00:00 20.8 12 Noroeste 23 Norte 0 -- -- 73
2017-07-25 14:00:00 20.9 13 Norte 23 Noroeste 0 -- -- 72
2017-07-25 13:00:00 18.7 14 Noroeste 26 Noroeste 0 -- -- 77
2017-07-25 12:00:00 18.9 14 Norte 29 Norte 0 -- -- 80
2017-07-25 11:00:00 17.8 10 Norte 20 Norte 0 -- -- 89
2017-07-25 10:00:00 15.1 13 Noroeste 20 Oeste 0 -- -- 96
2017-07-25 09:00:00 14.2 14 Oeste 18 Oeste 0 -- -- 99
2017-07-25 08:00:00 13.8 7 Oeste 12 Oeste 0 -- -- 100
2017-07-25 07:00:00 13.6 9 Noroeste 12 Oeste 0 -- -- 100
2017-07-25 06:00:00 13.6 3 Norte 10 Oeste 0 -- -- 100
2017-07-25 05:00:00 13.6 9 Oeste 15 Sudoeste 0 -- -- 100
2017-07-25 04:00:00 13.7 8 Oeste 13 Noroeste 0 -- -- 100
2017-07-25 03:00:00 13.8 6 Noroeste 16 Oeste 0 -- -- 100
2017-07-25 02:00:00 13.9 13 Noroeste 17 Norte 0 -- -- 100
2017-07-25 01:00:00 14.2 12 Noroeste 16 Noroeste 0 -- -- 100
2017-07-25 00:00:00 14.2 12 Noroeste 18 Noroeste 0 -- -- 100
2017-07-24 23:00:00 14.2 8 Noroeste 23 Oeste 0 -- -- 100
2017-07-24 22:00:00 14.5 12 Oeste 21 Oeste 0 -- -- 100
2017-07-24 21:00:00 14.9 12 Noroeste 18 Noroeste 0.2 -- -- 100
2017-07-24 20:00:00 15.3 12 Noroeste 26 Oeste 0 -- -- 99
2017-07-24 19:00:00 15.7 21 Oeste 31 Oeste 0 -- -- 96
2017-07-24 18:00:00 15.8 19 Oeste 33 Oeste 0 -- -- 95
2017-07-24 17:00:00 16.6 24 Oeste 35 Oeste 0 -- -- 90
2017-07-24 16:00:00 16.3 23 Oeste 35 Noroeste 0 -- -- 94
2017-07-24 15:00:00 17.1 24 Noroeste 36 Noroeste 0 -- -- 91
2017-07-24 14:00:00 18.6 24 Noroeste 41 Oeste 0 -- -- 86
2017-07-24 13:00:00 17.5 31 Noroeste 46 Noroeste 0 -- -- 94
2017-07-24 12:00:00 17.6 27 Noroeste 42 Noroeste 0 -- -- 94
2017-07-24 11:00:00 15.6 24 Noroeste 42 Noroeste 0 -- -- 100
2017-07-24 10:00:00 15.7 21 Noroeste 37 Noroeste 0.2 -- -- 100
2017-07-24 09:00:00 15.4 21 Noroeste 38 Noroeste 0.2 -- -- 100
2017-07-24 08:00:00 15.5 20 Noroeste 34 Noroeste 0 -- -- 100
2017-07-24 07:00:00 15.7 18 Noroeste 29 Noroeste 0 -- -- 100
2017-07-24 06:00:00 15.6 16 Noroeste 27 Oeste 0.4 -- -- 100
2017-07-24 05:00:00 15.9 16 Oeste 33 Noroeste 0 -- -- 100
2017-07-24 04:00:00 16.4 24 Oeste 33 Oeste 0.2 -- -- 100
2017-07-24 03:00:00 16.7 14 Noroeste 30 Noroeste 0 -- -- 100
2017-07-24 02:00:00 16.9 22 Noroeste 35 Noroeste 0 -- -- 100
2017-07-24 01:00:00 17 14 Noroeste 23 Noroeste 0 -- -- 100
2017-07-24 00:00:00 17 14 Noroeste 20 Noroeste 0.2 -- -- 100
2017-07-23 23:00:00 17.1 13 Noroeste 19 Noroeste 0.2 -- -- 99
2017-07-23 22:00:00 17.2 13 Noroeste 20 Noroeste 0.2 -- -- 96
2017-07-23 21:00:00 18.2 11 Oeste 27 Oeste 0 -- -- 87
2017-07-23 20:00:00 18.9 21 Oeste 28 Oeste 0 -- -- 82
2017-07-23 19:00:00 23.8 14 Noroeste 26 Oeste 0 -- -- 67
2017-07-23 18:00:00 23.4 14 Noroeste 24 Oeste 0 -- -- 70
2017-07-23 17:00:00 23 13 Oeste 26 Oeste 0 -- -- 70
2017-07-23 16:00:00 23.6 18 Noroeste 34 Norte 0 -- -- 68
2017-07-23 15:00:00 23.5 13 Norte 22 Noroeste 0 -- -- 68
2017-07-23 14:00:00 22.4 8 Noroeste 18 Noroeste 0 -- -- 69
2017-07-23 13:00:00 20.8 10 Noroeste 26 Norte 0 -- -- 68
2017-07-23 12:00:00 19.2 12 Noroeste 20 Noroeste 0 -- -- 73
2017-07-23 11:00:00 17.4 4 Sudoeste 8 Oeste 0 -- -- 83
2017-07-23 10:00:00 15 0 Calma 5 Noroeste 0 -- -- 100
2017-07-23 09:00:00 13.8 3 Nordeste 7 Este 0 -- -- 100
2017-07-23 08:00:00 12.9 0 Calma 4 Sudeste 0 -- -- 100
2017-07-23 07:00:00 12.7 0 Calma 5 Sudoeste 0 -- -- 100
2017-07-23 06:00:00 12.8 3 Sudoeste 5 Sudoeste 0 -- -- 100
2017-07-23 05:00:00 13.2 2 Este 5 Nordeste 0 -- -- 100
2017-07-23 04:00:00 13.4 2 Oeste 4 Sudeste 0 -- -- 100
2017-07-23 03:00:00 13.4 3 Sudeste 5 Sudeste 0 -- -- 100
2017-07-23 02:00:00 13.5 5 Sudeste 6 Sudeste 0 -- -- 100
2017-07-23 01:00:00 13.5 4 Noroeste 10 Oeste 0 -- -- 100
2017-07-23 00:00:00 13.5 3 Norte 13 Oeste 0 -- -- 100